Time;durP1;ratioP1;P1;durP2;ratioP2;P2;SDS_P1;SDS_P2;PMS_P1;PMS_P2;Temp;Humidity;BMP_temperature;BMP_pressure;BME280_temperature;BME280_humidity;BME280_pressure;Samples;Min_cycle;Max_cycle;Signal;HPM_P1;HPM_P2
2023/09/21 00:00:12;;;;;;;3.42;1.60;;;;;;;21.17;100.00;100249.19;5095218;28;20197;-77
2023/09/21 00:02:39;;;;;;;2.28;1.77;;;;;;;20.92;100.00;100219.03;5048023;28;20234;-77
2023/09/21 00:05:08;;;;;;;3.60;1.85;;;;;;;20.97;100.00;100250.56;5035870;28;20208;-77
2023/09/21 00:07:36;;;;;;;1.98;1.73;;;;;;;20.84;100.00;100255.25;5035895;28;20287;-77
2023/09/21 00:10:05;;;;;;;8.02;2.13;;;;;;;20.67;100.00;100262.69;5060740;28;20703;-78
2023/09/21 00:12:32;;;;;;;10.95;1.35;;;;;;;20.64;100.00;100254.88;5039741;28;20199;-76
2023/09/21 00:14:59;;;;;;;3.47;1.55;;;;;;;20.66;100.00;100259.19;5073582;28;20231;-76
2023/09/21 00:17:26;;;;;;;1.70;1.60;;;;;;;20.52;100.00;100252.50;5055760;28;20221;-77
2023/09/21 00:19:53;;;;;;;3.15;2.00;;;;;;;20.47;100.00;100235.94;5073890;28;20240;-77
2023/09/21 00:22:22;;;;;;;1.75;1.38;;;;;;;20.53;100.00;100235.78;5073644;28;20206;-76
2023/09/21 00:24:49;;;;;;;1.27;1.17;;;;;;;20.37;100.00;100237.06;5074306;28;20205;-77
2023/09/21 00:27:17;;;;;;;2.22;1.77;;;;;;;20.39;100.00;100259.81;5038834;28;20711;-78
2023/09/21 00:29:49;;;;;;;1.95;1.80;;;;;;;20.42;100.00;100258.88;5073722;28;20203;-76
2023/09/21 00:32:15;;;;;;;3.78;1.73;;;;;;;20.44;100.00;100262.34;5073941;28;20207;-75
2023/09/21 00:34:42;;;;;;;2.28;1.50;;;;;;;20.22;100.00;100231.19;5073803;28;20682;-78
2023/09/21 00:37:11;;;;;;;1.80;1.70;;;;;;;20.40;100.00;100260.69;5073818;28;20219;-76
2023/09/21 00:39:40;;;;;;;2.30;2.13;;;;;;;20.44;100.00;100254.47;5073989;28;20237;-78
2023/09/21 00:42:06;;;;;;;3.63;1.88;;;;;;;20.35;100.00;100252.88;5074312;28;20248;-78
2023/09/21 00:44:33;;;;;;;1.75;1.65;;;;;;;20.34;100.00;100251.13;5035232;28;20238;-77
2023/09/21 00:47:01;;;;;;;1.88;1.70;;;;;;;20.35;100.00;100246.75;5068543;28;20227;-77
2023/09/21 00:49:31;;;;;;;1.00;1.00;;;;;;;20.31;100.00;100235.41;5072880;28;20253;-78
2023/09/21 00:51:58;;;;;;;1.85;1.75;;;;;;;20.26;100.00;100237.25;5073655;28;20294;-78
2023/09/21 00:54:26;;;;;;;4.00;2.25;;;;;;;20.17;100.00;100233.06;5073436;28;20211;-77
2023/09/21 00:56:55;;;;;;;2.00;1.45;;;;;;;20.23;100.00;100243.44;5073319;28;20249;-77
2023/09/21 00:59:22;;;;;;;3.08;1.70;;;;;;;20.09;100.00;100213.91;5038283;28;20187;-77
2023/09/21 01:01:50;;;;;;;1.75;1.65;;;;;;;20.26;100.00;100242.53;5072965;28;20195;-76
2023/09/21 01:04:16;;;;;;;2.05;1.33;;;;;;;20.20;100.00;100237.38;5072868;28;20194;-77
2023/09/21 01:06:47;;;;;;;1.92;1.50;;;;;;;20.08;100.00;100212.16;5072026;28;20195;-75
2023/09/21 01:09:17;;;;;;;1.98;1.83;;;;;;;20.31;100.00;100240.69;5073698;28;20195;-77
2023/09/21 01:11:44;;;;;;;2.78;2.05;;;;;;;20.30;100.00;100238.94;5073570;28;20290;-77
2023/09/21 01:14:12;;;;;;;1.33;1.33;;;;;;;20.40;100.00;100240.50;5038567;28;20585;-77
2023/09/21 01:16:40;;;;;;;1.45;1.35;;;;;;;20.22;100.00;100220.66;5072720;28;20226;-78
2023/09/21 01:19:06;;;;;;;1.52;1.15;;;;;;;20.31;100.00;100231.91;5072733;28;20580;-77
2023/09/21 01:21:36;;;;;;;1.52;1.42;;;;;;;20.28;100.00;100212.66;5036670;28;20203;-76
2023/09/21 01:24:06;;;;;;;4.05;1.60;;;;;;;20.38;100.00;100231.75;5073290;28;20290;-77
2023/09/21 01:26:33;;;;;;;1.58;1.48;;;;;;;20.25;100.00;100240.78;5054230;28;20198;-77
2023/09/21 01:29:01;;;;;;;3.55;1.92;;;;;;;20.25;100.00;100233.75;5072861;28;20296;-78
2023/09/21 01:31:29;;;;;;;2.38;2.17;;;;;;;20.24;100.00;100237.28;5058006;28;20655;-77
2023/09/21 01:33:58;;;;;;;1.65;1.55;;;;;;;20.17;100.00;100227.78;5053619;28;20214;-78
2023/09/21 01:36:25;;;;;;;1.52;1.35;;;;;;;20.24;100.00;100232.00;5072364;28;20654;-77
2023/09/21 01:38:53;;;;;;;1.52;1.42;;;;;;;20.12;100.00;100221.75;5073007;28;20237;-77
2023/09/21 01:41:21;;;;;;;3.60;2.33;;;;;;;20.28;100.00;100235.47;5072683;28;20762;-77
2023/09/21 01:43:48;;;;;;;2.28;1.90;;;;;;;20.18;100.00;100234.78;5072829;28;20211;-78
2023/09/21 01:46:19;;;;;;;1.55;1.38;;;;;;;20.20;100.00;100240.00;5072771;28;20272;-78
2023/09/21 01:48:45;;;;;;;2.80;1.30;;;;;;;20.02;100.00;100222.84;5072233;28;21019;-78
2023/09/21 01:51:13;;;;;;;2.03;1.85;;;;;;;20.03;100.00;100235.13;5036912;28;20214;-78
2023/09/21 01:53:39;;;;;;;2.03;1.83;;;;;;;20.01;100.00;100231.63;5072748;28;20290;-78
2023/09/21 01:56:07;;;;;;;1.30;1.20;;;;;;;20.00;100.00;100229.91;5072952;28;20199;-77
2023/09/21 01:58:35;;;;;;;1.50;1.40;;;;;;;20.16;100.00;100222.53;5072839;28;20230;-78
2023/09/21 02:01:03;;;;;;;9.38;2.65;;;;;;;20.07;100.00;100226.25;5070705;28;20203;-77
2023/09/21 02:03:31;;;;;;;3.47;2.30;;;;;;;19.64;100.00;100164.88;5053517;28;20566;-77
2023/09/21 02:06:02;;;;;;;4.53;1.92;;;;;;;19.90;100.00;100225.75;5072095;28;20205;-77
2023/09/21 02:08:29;;;;;;;2.10;1.58;;;;;;;19.64;100.00;100199.09;5070013;28;20206;-78
2023/09/21 02:10:55;;;;;;;2.40;1.58;;;;;;;19.78;100.00;100229.50;5072716;28;20275;-77
2023/09/21 02:13:22;;;;;;;3.65;1.92;;;;;;;19.75;100.00;100228.69;5072309;28;20280;-77
2023/09/21 02:15:51;;;;;;;1.55;1.35;;;;;;;19.75;100.00;100223.41;5071813;28;20586;-75
2023/09/21 02:18:19;;;;;;;1.88;1.77;;;;;;;19.56;100.00;100207.13;5057971;28;20227;-78
2023/09/21 02:20:45;;;;;;;2.13;2.03;;;;;;;19.48;100.00;100187.13;5036645;28;20632;-77
2023/09/21 02:23:13;;;;;;;1.95;1.75;;;;;;;19.81;100.00;100223.28;5071489;28;20203;-78
2023/09/21 02:25:41;;;;;;;8.77;2.45;;;;;;;19.82;100.00;100217.13;5072075;28;20252;-77
2023/09/21 02:28:11;;;;;;;1.52;1.33;;;;;;;19.89;100.00;100208.22;5071614;28;20671;-77
2023/09/21 02:30:40;;;;;;;1.98;1.77;;;;;;;19.92;100.00;100216.03;5072038;28;20198;-78
2023/09/21 02:33:09;;;;;;;3.30;1.70;;;;;;;19.82;100.00;100197.84;5062176;28;20198;-78
2023/09/21 02:35:40;;;;;;;3.05;1.45;;;;;;;19.89;100.00;100210.84;5070384;28;20709;-76
2023/09/21 02:38:09;;;;;;;1.00;1.00;;;;;;;19.95;100.00;100205.44;5070272;28;20266;-76
2023/09/21 02:40:36;;;;;;;1.58;1.45;;;;;;;19.94;100.00;100211.59;5071737;28;20199;-78
2023/09/21 02:43:03;;;;;;;1.27;1.27;;;;;;;19.90;100.00;100188.91;5066609;28;20746;-76
2023/09/21 02:45:30;;;;;;;1.70;1.60;;;;;;;20.01;100.00;100200.03;5071335;28;20212;-75
2023/09/21 02:48:00;;;;;;;1.80;1.63;;;;;;;19.92;100.00;100175.69;5071091;28;20209;-76
2023/09/21 02:50:30;;;;;;;1.23;1.13;;;;;;;20.04;100.00;100184.22;5071609;28;20205;-78
2023/09/21 02:53:01;;;;;;;5.28;1.50;;;;;;;20.11;100.00;100206.00;5070898;28;20198;-78
2023/09/21 02:55:29;;;;;;;2.28;1.80;;;;;;;19.97;100.00;100206.31;5068745;28;20206;-78
2023/09/21 02:57:58;;;;;;;2.38;1.63;;;;;;;20.02;100.00;100209.69;5053416;28;20592;-76
2023/09/21 03:00:34;;;;;;;1.58;1.48;;;;;;;20.08;100.00;100211.34;5071527;28;20194;-77
2023/09/21 03:03:04;;;;;;;2.38;2.17;;;;;;;20.00;100.00;100219.38;5071409;28;20232;-78
2023/09/21 03:05:33;;;;;;;1.75;1.55;;;;;;;20.05;100.00;100212.25;5071364;28;20233;-78
2023/09/21 03:08:04;;;;;;;1.40;1.30;;;;;;;19.96;100.00;100209.81;5070918;28;20237;-77
2023/09/21 03:10:31;;;;;;;1.80;1.40;;;;;;;19.92;100.00;100216.03;5071541;28;20195;-78
2023/09/21 03:12:58;;;;;;;2.53;1.05;;;;;;;19.93;100.00;100216.91;5070812;28;20268;-77
2023/09/21 03:15:25;;;;;;;3.92;1.90;;;;;;;19.85;100.00;100224.09;5071872;28;20218;-80
2023/09/21 03:17:53;;;;;;;1.70;1.58;;;;;;;19.77;100.00;100225.13;5071247;28;20238;-80
2023/09/21 03:20:28;;;;;;;2.67;1.50;;;;;;;19.72;100.00;100227.00;5071037;28;20295;-78
2023/09/21 03:22:57;;;;;;;1.83;1.65;;;;;;;19.76;100.00;100219.91;5063642;28;20203;-78
2023/09/21 03:25:31;;;;;;;1.98;1.42;;;;;;;19.74;100.00;100222.56;5035609;28;20584;-78
2023/09/21 03:27:58;;;;;;;3.38;1.30;;;;;;;19.76;100.00;100223.38;5052158;28;20210;-77
2023/09/21 03:30:26;;;;;;;1.63;1.52;;;;;;;19.78;100.00;100218.97;5070955;28;20202;-77
2023/09/21 03:32:53;;;;;;;1.35;1.25;;;;;;;19.71;100.00;100219.09;5071111;28;20222;-77
2023/09/21 03:35:20;;;;;;;2.10;1.73;;;;;;;19.77;100.00;100218.97;5068882;28;20222;-77
2023/09/21 03:37:49;;;;;;;2.67;2.10;;;;;;;19.70;100.00;100214.75;5069346;28;20223;-77
2023/09/21 03:40:18;;;;;;;1.85;1.67;;;;;;;19.74;100.00;100212.03;5070643;28;20205;-77
2023/09/21 03:42:45;;;;;;;1.52;1.20;;;;;;;19.64;100.00;100217.50;5068458;28;20222;-77
2023/09/21 03:45:15;;;;;;;2.72;2.05;;;;;;;19.66;100.00;100218.31;5070257;28;20287;-77
2023/09/21 03:47:42;;;;;;;6.40;2.03;;;;;;;19.47;100.00;100186.28;5068203;28;20194;-77
2023/09/21 03:50:12;;;;;;;3.58;1.80;;;;;;;19.68;100.00;100221.81;5069999;28;20211;-77
2023/09/21 03:52:39;;;;;;;1.48;1.38;;;;;;;19.68;100.00;100211.28;5070798;28;20214;-78
2023/09/21 03:55:10;;;;;;;1.88;1.38;;;;;;;19.68;100.00;100216.53;5070757;28;20274;-77
2023/09/21 03:57:38;;;;;;;1.63;1.52;;;;;;;19.63;100.00;100215.75;5070982;28;20653;-77
2023/09/21 04:00:18;;;;;;;2.65;1.95;;;;;;;19.56;100.00;100217.66;5070960;28;20230;-77
2023/09/21 04:02:46;;;;;;;1.30;1.20;;;;;;;19.51;100.00;100208.97;5059684;28;20194;-78
2023/09/21 04:05:20;;;;;;;1.48;1.30;;;;;;;19.53;100.00;100211.56;5051540;28;20638;-77
2023/09/21 04:07:47;;;;;;;2.08;1.90;;;;;;;19.59;100.00;100211.44;5070957;28;20587;-78
2023/09/21 04:10:15;;;;;;;1.83;1.45;;;;;;;19.51;100.00;100208.13;5070425;28;20195;-77
2023/09/21 04:12:43;;;;;;;1.77;1.67;;;;;;;19.56;100.00;100214.16;5071084;28;20199;-77
2023/09/21 04:15:11;;;;;;;1.25;1.08;;;;;;;19.44;100.00;100194.19;5070382;28;20630;-75
2023/09/21 04:17:38;;;;;;;1.42;1.08;;;;;;;19.58;100.00;100215.00;5070723;28;20681;-77
2023/09/21 04:20:10;;;;;;;1.30;1.20;;;;;;;19.62;100.00;100216.69;5070778;28;20302;-77
2023/09/21 04:22:38;;;;;;;2.42;1.67;;;;;;;19.59;100.00;100212.31;5036152;28;20253;-77
2023/09/21 04:25:08;;;;;;;2.67;1.42;;;;;;;19.59;100.00;100221.97;5071934;28;20202;-77
2023/09/21 04:27:36;;;;;;;1.67;1.02;;;;;;;19.57;100.00;100219.38;5074101;28;20658;-77
2023/09/21 04:30:06;;;;;;;1.52;1.40;;;;;;;19.57;100.00;100216.75;5073882;28;20707;-77
2023/09/21 04:32:34;;;;;;;5.07;1.77;;;;;;;19.51;100.00;100213.38;5074149;28;20195;-77
2023/09/21 04:35:03;;;;;;;3.30;2.10;;;;;;;19.33;100.00;100192.66;5074488;28;20206;-76
2023/09/21 04:37:30;;;;;;;1.67;1.30;;;;;;;19.47;100.00;100214.34;5073486;28;20191;-76
2023/09/21 04:39:58;;;;;;;2.85;1.48;;;;;;;19.63;100.00;100219.25;5074093;28;20211;-77
2023/09/21 04:42:25;;;;;;;1.13;1.13;;;;;;;19.63;100.00;100181.56;5039616;28;20207;-77
2023/09/21 04:44:55;;;;;;;1.77;1.67;;;;;;;20.10;100.00;100220.06;5073971;28;20197;-80
2023/09/21 04:47:23;;;;;;;5.88;1.88;;;;;;;20.50;100.00;100225.34;5073565;28;20199;-77
2023/09/21 04:49:50;;;;;;;2.55;1.70;;;;;;;20.46;100.00;100195.56;5035415;28;20223;-75
2023/09/21 04:52:17;;;;;;;2.63;1.77;;;;;;;20.66;100.00;100185.41;5054158;28;20206;-79
2023/09/21 04:54:50;;;;;;;2.42;2.22;;;;;;;21.10;100.00;100223.88;5054166;28;20207;-76
2023/09/21 04:57:17;;;;;;;5.95;2.10;;;;;;;20.64;100.00;100181.09;5068618;28;20201;-77
2023/09/21 04:59:44;;;;;;;4.25;3.30;;;;;;;20.69;100.00;100235.38;5073708;28;20227;-78
2023/09/21 05:02:11;;;;;;;5.10;4.57;;;;;;;20.50;100.00;100212.16;5074006;28;20669;-79
2023/09/21 05:04:39;;;;;;;4.55;3.42;;;;;;;20.48;100.00;100233.25;5073996;28;20198;-79
2023/09/21 05:07:06;;;;;;;2.25;1.90;;;;;;;20.31;100.00;100229.28;5068691;28;20230;-77
2023/09/21 05:09:33;;;;;;;1.35;1.27;;;;;;;20.28;100.00;100236.34;5053334;28;20235;-76
2023/09/21 05:12:00;;;;;;;1.48;1.38;;;;;;;20.21;100.00;100234.72;5057126;28;20246;-73
2023/09/21 05:14:27;;;;;;;4.63;2.45;;;;;;;20.25;100.00;100233.75;5072128;28;20690;-77
2023/09/21 05:16:57;;;;;;;1.90;1.70;;;;;;;20.22;100.00;100241.72;5051451;28;20191;-76
2023/09/21 05:19:24;;;;;;;3.08;2.35;;;;;;;19.73;100.00;100202.38;5073821;28;20223;-76
2023/09/21 05:21:56;;;;;;;3.40;2.45;;;;;;;19.62;100.00;100185.09;5068124;28;20202;-77
2023/09/21 05:24:23;;;;;;;2.95;1.65;;;;;;;19.70;100.00;100230.53;5064069;28;20633;-79
2023/09/21 05:26:50;;;;;;;3.92;2.20;;;;;;;19.65;100.00;100216.63;5069247;28;20252;-76
2023/09/21 05:29:17;;;;;;;3.08;2.40;;;;;;;19.79;100.00;100219.84;5073913;28;20258;-78
2023/09/21 05:31:44;;;;;;;1.35;1.27;;;;;;;19.86;100.00;100234.59;5072936;28;20203;-79
2023/09/21 05:34:11;;;;;;;7.68;2.28;;;;;;;19.97;100.00;100242.28;5072625;28;20201;-79
2023/09/21 05:36:37;;;;;;;4.07;2.20;;;;;;;20.17;100.00;100237.44;5072787;28;20215;-76
2023/09/21 05:39:08;;;;;;;1.85;1.63;;;;;;;20.41;100.00;100241.31;5072875;28;20219;-76
2023/09/21 05:41:34;;;;;;;1.33;1.25;;;;;;;20.59;100.00;100230.38;5072794;28;20289;-76
2023/09/21 05:44:01;;;;;;;3.17;2.05;;;;;;;20.64;100.00;100239.06;5072484;28;20207;-76
2023/09/21 05:46:28;;;;;;;6.47;2.63;;;;;;;20.80;100.00;100235.13;5064420;28;20675;-76
2023/09/21 05:48:55;;;;;;;1.85;1.75;;;;;;;20.95;100.00;100231.25;5067089;28;20763;-77
2023/09/21 05:51:21;;;;;;;5.93;2.55;;;;;;;20.72;100.00;100164.19;5054000;28;20199;-76
2023/09/21 05:53:49;;;;;;;6.68;3.42;;;;;;;21.26;100.00;100230.47;5072626;28;20203;-78
2023/09/21 05:56:19;;;;;;;3.75;3.30;;;;;;;21.57;100.00;100229.66;5058281;28;20282;-79
2023/09/21 05:58:46;;;;;;;4.20;3.80;;;;;;;21.66;100.00;100230.25;5050486;28;20612;-78
2023/09/21 06:01:13;;;;;;;3.95;2.30;;;;;;;21.63;100.00;100218.94;5070473;28;20590;-74
2023/09/21 06:03:40;;;;;;;1.60;1.50;;;;;;;21.96;100.00;100243.53;5053846;28;20209;-78
2023/09/21 06:06:07;;;;;;;3.15;2.10;;;;;;;22.12;100.00;100255.38;5072424;28;20574;-78
2023/09/21 06:08:37;;;;;;;5.88;3.10;;;;;;;22.08;100.00;100254.59;5072228;28;20252;-79
2023/09/21 06:11:04;;;;;;;2.00;1.80;;;;;;;21.98;100.00;100236.44;5072057;28;20203;-80
2023/09/21 06:13:32;;;;;;;1.60;1.50;;;;;;;22.11;100.00;100243.97;5072262;28;20227;-79
2023/09/21 06:16:02;;;;;;;1.83;1.70;;;;;;;22.07;100.00;100252.91;5071951;28;20253;-77
2023/09/21 06:18:29;;;;;;;2.78;1.55;;;;;;;22.06;100.00;100261.72;5072113;28;20586;-80
2023/09/21 06:20:56;;;;;;;2.58;2.17;;;;;;;21.92;100.00;100258.59;5072244;28;20206;-82
2023/09/21 06:23:23;;;;;;;0.98;0.98;;;;;;;21.93;100.00;100257.72;5072186;28;20612;-81
2023/09/21 06:25:50;;;;;;;1.65;1.55;;;;;;;21.79;100.00;100214.97;5072945;28;20209;-84
2023/09/21 06:28:18;;;;;;;1.92;1.83;;;;;;;21.91;100.00;100251.59;5072577;28;20207;-84
2023/09/21 06:30:47;;;;;;;1.85;1.75;;;;;;;22.03;100.00;100239.81;5072138;28;20588;-83
2023/09/21 06:33:14;;;;;;;3.90;2.92;;;;;;;21.92;100.00;100255.97;5072567;28;20643;-82
2023/09/21 06:35:42;;;;;;;1.77;1.67;;;;;;;22.06;100.00;100245.00;5079187;28;20659;-83
2023/09/21 06:38:08;;;;;;;3.58;2.38;;;;;;;21.80;100.00;100216.66;5079291;28;20195;-83
2023/09/21 06:40:36;;;;;;;2.30;1.80;;;;;;;22.00;100.00;100247.84;5079294;28;20226;-83
2023/09/21 06:43:06;;;;;;;1.63;1.52;;;;;;;22.21;100.00;100256.00;5083627;28;20232;-83
2023/09/21 06:45:34;;;;;;;2.13;1.63;;;;;;;21.94;100.00;100196.03;5081847;28;20678;-83
2023/09/21 06:48:03;;;;;;;2.53;1.63;;;;;;;22.49;100.00;100247.22;5082079;28;20199;-82
2023/09/21 06:50:31;;;;;;;2.00;1.90;;;;;;;22.56;100.00;100260.19;5078910;28;20198;-81
2023/09/21 06:52:57;;;;;;;1.02;1.00;;;;;;;22.60;100.00;100260.97;5081733;28;20256;-82
2023/09/21 06:55:25;;;;;;;2.25;2.05;;;;;;;22.58;100.00;100268.94;5084295;28;20202;-82
2023/09/21 06:57:52;;;;;;;2.60;1.92;;;;;;;22.66;100.00;100248.41;5080458;28;20680;-83
2023/09/21 07:00:18;;;;;;;1.98;1.88;;;;;;;23.03;100.00;100264.00;5083199;28;20233;-84
2023/09/21 07:02:46;;;;;;;1.80;1.70;;;;;;;22.95;100.00;100260.75;5078385;28;20198;-83
2023/09/21 07:05:14;;;;;;;4.88;2.10;;;;;;;22.86;100.00;100263.69;5075923;28;20256;-82
2023/09/21 07:07:41;;;;;;;2.55;2.33;;;;;;;22.48;100.00;100226.97;5078928;28;20210;-83
2023/09/21 07:10:11;;;;;;;1.60;1.50;;;;;;;22.90;100.00;100270.59;5076244;28;20191;-83
2023/09/21 07:12:39;;;;;;;1.60;1.50;;;;;;;22.89;100.00;100260.09;5078404;28;20241;-83
2023/09/21 07:15:08;;;;;;;1.50;1.40;;;;;;;23.09;100.00;100261.16;5078050;28;20314;-83
2023/09/21 07:17:36;;;;;;;4.50;2.33;;;;;;;23.15;100.00;100241.59;5077824;28;20593;-82
2023/09/21 07:20:04;;;;;;;1.55;1.45;;;;;;;23.46;100.00;100252.00;5059213;28;20265;-83
2023/09/21 07:22:32;;;;;;;3.08;2.17;;;;;;;23.60;98.20;100231.19;5072903;28;20238;-81
2023/09/21 07:25:00;;;;;;;1.63;1.52;;;;;;;23.95;93.55;100230.78;5058821;28;20211;-84
2023/09/21 07:27:26;;;;;;;1.50;1.42;;;;;;;24.09;92.48;100254.97;5073923;28;20202;-82
2023/09/21 07:29:55;;;;;;;7.00;2.25;;;;;;;24.16;91.39;100267.09;5079817;28;20195;-86
2023/09/21 07:32:22;;;;;;;3.58;2.17;;;;;;;24.02;89.40;100261.41;5074859;28;20289;-83
2023/09/21 07:34:49;;;;;;;2.08;1.63;;;;;;;23.95;91.20;100249.31;5071126;28;20206;-82
2023/09/21 07:37:16;;;;;;;2.53;2.03;;;;;;;23.91;88.66;100245.03;5071083;28;20588;-81
2023/09/21 07:39:45;;;;;;;3.05;2.17;;;;;;;23.76;88.83;100245.59;5059389;28;20701;-82
2023/09/21 07:42:12;;;;;;;1.33;1.23;;;;;;;24.01;90.10;100262.31;5055101;28;20285;-82
2023/09/21 07:44:38;;;;;;;1.77;1.67;;;;;;;24.22;89.01;100255.41;5070871;28;20601;-82
2023/09/21 07:47:07;;;;;;;1.25;1.15;;;;;;;24.01;86.71;100219.94;5071979;28;20205;-82
2023/09/21 07:49:34;;;;;;;2.20;2.10;;;;;;;24.44;87.82;100255.41;5071472;28;20198;-79
2023/09/21 07:52:00;;;;;;;1.48;1.38;;;;;;;24.53;85.77;100249.78;5071013;28;20625;-77
2023/09/21 07:54:29;;;;;;;1.92;1.40;;;;;;;24.67;86.21;100253.63;5071000;28;20194;-78
2023/09/21 07:56:57;;;;;;;2.40;2.20;;;;;;;24.29;85.78;100150.03;5071093;28;20202;-78
2023/09/21 07:59:24;;;;;;;1.48;1.38;;;;;;;25.08;85.10;100243.97;5072698;28;20318;-78
2023/09/21 08:01:51;;;;;;;2.67;2.17;;;;;;;25.15;83.04;100234.81;5056500;28;20638;-76
2023/09/21 08:04:20;;;;;;;2.00;1.90;;;;;;;24.77;81.82;100245.28;5074692;28;20199;-77
2023/09/21 08:06:47;;;;;;;1.58;1.38;;;;;;;24.18;80.96;100159.28;5074855;28;20698;-77
2023/09/21 08:09:14;;;;;;;2.20;1.63;;;;;;;24.64;82.49;100239.59;5074660;28;20202;-78
2023/09/21 08:11:41;;;;;;;2.15;1.63;;;;;;;25.00;79.85;100235.50;5074634;28;20670;-77
2023/09/21 08:14:10;;;;;;;2.80;1.48;;;;;;;25.18;75.81;100239.16;5074944;28;20257;-78
2023/09/21 08:16:37;;;;;;;2.03;1.83;;;;;;;25.20;75.65;100237.28;5074497;28;20237;-77
2023/09/21 08:19:06;;;;;;;1.67;1.55;;;;;;;25.23;77.18;100213.28;5074417;28;20718;-77
2023/09/21 08:21:33;;;;;;;3.83;2.15;;;;;;;25.40;76.02;100234.63;5074399;28;20569;-77
2023/09/21 08:24:00;;;;;;;1.30;1.20;;;;;;;25.48;75.75;100237.84;5074700;28;20217;-76
2023/09/21 08:26:27;;;;;;;2.58;2.35;;;;;;;25.62;74.50;100239.91;5074344;28;20213;-78
2023/09/21 08:28:54;;;;;;;1.92;1.75;;;;;;;25.87;75.10;100240.53;5074285;28;20202;-79
2023/09/21 08:31:22;;;;;;;1.88;1.67;;;;;;;26.06;75.34;100230.81;5074200;28;20206;-79
2023/09/21 08:33:49;;;;;;;2.08;1.85;;;;;;;25.71;76.00;100234.22;5074515;28;20191;-78
2023/09/21 08:36:16;;;;;;;2.55;1.52;;;;;;;25.70;77.36;100229.81;5074277;28;20206;-78
2023/09/21 08:38:43;;;;;;;2.05;1.58;;;;;;;25.75;76.67;100224.31;5074133;28;20209;-78
2023/09/21 08:41:10;;;;;;;2.67;2.03;;;;;;;25.95;76.66;100230.44;5074006;28;20226;-79
2023/09/21 08:43:38;;;;;;;2.42;1.52;;;;;;;26.15;75.85;100225.06;5074238;28;20671;-79
2023/09/21 08:46:06;;;;;;;1.67;1.58;;;;;;;26.54;73.86;100237.47;5074343;28;20987;-79
2023/09/21 08:48:36;;;;;;;2.30;2.08;;;;;;;26.95;72.15;100228.34;5073816;28;20596;-79
2023/09/21 08:51:07;;;;;;;2.65;1.90;;;;;;;27.21;70.05;100227.03;5073870;28;20209;-78
2023/09/21 08:53:36;;;;;;;1.58;1.48;;;;;;;27.42;68.06;100191.28;5038863;28;20202;-78
2023/09/21 08:56:04;;;;;;;2.15;1.95;;;;;;;27.57;65.55;100233.13;5074254;28;20202;-80
2023/09/21 08:58:34;;;;;;;3.55;1.67;;;;;;;27.49;65.57;100230.03;5074078;28;20202;-78
2023/09/21 09:01:01;;;;;;;1.88;1.75;;;;;;;27.68;65.49;100232.59;5073933;28;20250;-77
2023/09/21 09:03:28;;;;;;;4.22;2.15;;;;;;;27.78;63.67;100207.16;5073721;28;20206;-78
2023/09/21 09:05:58;;;;;;;10.57;2.15;;;;;;;27.69;63.35;100198.78;5073702;28;20599;-78
2023/09/21 09:08:26;;;;;;;2.53;1.50;;;;;;;27.90;61.54;100224.28;5073622;28;20257;-78
2023/09/21 09:10:54;;;;;;;7.35;2.05;;;;;;;28.26;62.50;100229.44;5072709;28;20199;-79
2023/09/21 09:13:22;;;;;;;3.75;1.75;;;;;;;28.00;61.10;100213.03;5038542;28;20262;-77
2023/09/21 09:15:48;;;;;;;3.38;2.05;;;;;;;28.00;60.39;100226.38;5055219;28;20199;-78
2023/09/21 09:18:15;;;;;;;3.40;2.15;;;;;;;27.90;61.17;100202.97;5038322;28;20678;-78
2023/09/21 09:20:44;;;;;;;2.28;1.90;;;;;;;28.01;57.78;100212.09;5073271;28;20231;-76
2023/09/21 09:23:14;;;;;;;7.03;3.67;;;;;;;27.77;60.06;100223.22;5070781;28;20199;-80
2023/09/21 09:25:43;;;;;;;2.33;1.95;;;;;;;27.60;59.89;100218.81;5059131;28;20627;-80
2023/09/21 09:28:10;;;;;;;7.15;1.77;;;;;;;27.63;60.12;100210.66;5072861;28;20650;-81
2023/09/21 09:30:37;;;;;;;3.97;2.42;;;;;;;27.40;60.28;100168.31;5072959;28;20621;-78
2023/09/21 09:33:09;;;;;;;3.38;2.33;;;;;;;27.77;59.60;100192.13;5058757;28;20196;-74
2023/09/21 09:35:38;;;;;;;2.08;1.88;;;;;;;27.73;59.88;100222.53;5072864;28;20198;-77
2023/09/21 09:38:08;;;;;;;2.92;1.90;;;;;;;28.10;60.27;100212.59;5073031;28;20203;-80
2023/09/21 09:40:37;;;;;;;7.07;2.22;;;;;;;28.37;60.43;100206.56;5073065;28;20248;-80
2023/09/21 09:43:05;;;;;;;3.30;2.05;;;;;;;28.60;58.98;100194.59;5073157;28;20272;-80
2023/09/21 09:45:33;;;;;;;4.78;1.75;;;;;;;28.89;57.66;100217.84;5073726;28;20248;-81
2023/09/21 09:48:01;;;;;;;4.15;1.98;;;;;;;28.93;57.25;100191.81;5073089;28;20205;-77
2023/09/21 09:50:33;;;;;;;2.47;1.55;;;;;;;28.68;57.07;100205.72;5072801;28;20328;-79
2023/09/21 09:53:05;;;;;;;3.40;2.45;;;;;;;28.88;57.13;100205.44;5077079;28;20281;-77
2023/09/21 09:55:33;;;;;;;9.27;2.22;;;;;;;29.07;56.44;100191.00;5073425;28;20682;-78
2023/09/21 09:58:01;;;;;;;1.20;1.10;;;;;;;28.89;54.26;100195.63;5063987;28;20215;-78
2023/09/21 10:00:29;;;;;;;16.05;1.50;;;;;;;28.54;55.46;100184.25;5067318;28;20232;-77
2023/09/21 10:02:57;;;;;;;3.00;1.33;;;;;;;29.13;55.60;100203.97;5072450;28;20744;-78
2023/09/21 10:05:26;;;;;;;1.50;1.40;;;;;;;29.69;53.75;100205.91;5072388;28;20237;-79
2023/09/21 10:07:55;;;;;;;2.45;1.90;;;;;;;29.67;54.44;100206.03;5072486;28;20257;-80
2023/09/21 10:10:24;;;;;;;2.78;1.95;;;;;;;29.77;53.09;100211.66;5037025;28;20256;-79
2023/09/21 10:12:52;;;;;;;1.42;1.33;;;;;;;29.26;53.25;100204.97;5072194;28;20206;-79
2023/09/21 10:15:22;;;;;;;6.50;1.95;;;;;;;29.25;54.03;100203.25;5072611;28;20241;-79
2023/09/21 10:17:50;;;;;;;1.95;1.80;;;;;;;29.42;53.72;100176.41;5071827;28;20285;-79
2023/09/21 10:20:24;;;;;;;2.00;1.45;;;;;;;29.64;51.84;100198.19;5071816;28;20218;-79
2023/09/21 10:22:53;;;;;;;2.28;1.67;;;;;;;29.90;52.37;100194.78;5071831;28;20309;-79
2023/09/21 10:25:38;;;;;;;4.30;2.28;;;;;;;30.23;50.62;100193.59;5072029;28;20206;-79
2023/09/21 10:28:34;;;;;;;2.88;1.70;;;;;;;30.28;50.67;100202.19;5037184;28;20199;-80
2023/09/21 10:31:22;;;;;;;7.60;1.77;;;;;;;30.05;50.76;100194.75;5029889;28;20192;-80
2023/09/21 10:34:05;;;;;;;2.35;2.15;;;;;;;29.75;52.51;100187.69;5029922;28;20662;-75
2023/09/21 10:36:32;;;;;;;1.58;1.48;;;;;;;29.55;52.76;100185.38;5029973;28;20192;-76
2023/09/21 10:39:28;;;;;;;2.35;2.25;;;;;;;29.70;52.17;100170.22;5029948;28;20192;-76
2023/09/21 10:41:56;;;;;;;1.50;1.40;;;;;;;30.04;52.10;100177.84;5029727;28;20223;-76
2023/09/21 10:44:59;;;;;;;2.25;1.70;;;;;;;30.41;50.57;100174.56;5029672;28;20719;-76
2023/09/21 10:47:29;;;;;;;1.40;1.30;;;;;;;30.00;49.81;100174.50;5029819;28;20644;-76
2023/09/21 10:50:02;;;;;;;3.22;2.60;;;;;;;29.95;51.53;100163.28;5029746;28;20196;-75
2023/09/21 10:52:29;;;;;;;2.35;1.73;;;;;;;29.69;49.87;100147.09;5029494;28;20204;-77
2023/09/21 10:54:57;;;;;;;1.45;1.35;;;;;;;29.61;50.47;100136.06;5029593;28;20572;-78
2023/09/21 10:57:25;;;;;;;1.60;1.50;;;;;;;29.53;51.91;100144.56;5029678;28;20203;-77
2023/09/21 10:59:53;;;;;;;2.00;1.70;;;;;;;30.00;52.18;100155.78;5027459;28;20758;-76
2023/09/21 11:02:20;;;;;;;2.55;1.40;;;;;;;29.71;52.66;100148.75;5024712;28;20232;-77
2023/09/21 11:04:49;;;;;;;3.75;1.70;;;;;;;29.84;52.59;100149.72;5029161;28;20596;-78
2023/09/21 11:07:17;;;;;;;1.52;1.42;;;;;;;29.96;53.28;100148.09;5036053;28;20587;-77
2023/09/21 11:09:43;;;;;;;2.72;1.73;;;;;;;29.92;52.18;100144.75;5071871;28;20260;-77
2023/09/21 11:12:13;;;;;;;2.45;2.25;;;;;;;30.33;51.70;100147.41;5071753;28;20218;-78
2023/09/21 11:14:43;;;;;;;6.72;1.52;;;;;;;30.54;50.84;100131.78;5071496;28;20234;-78
2023/09/21 11:17:11;;;;;;;2.85;1.70;;;;;;;30.62;51.94;100116.06;5066666;28;20558;-75
2023/09/21 11:19:39;;;;;;;1.55;1.45;;;;;;;30.63;49.18;100052.69;5068787;28;20206;-77
2023/09/21 11:22:08;;;;;;;1.50;1.40;;;;;;;31.06;48.46;100109.56;5070913;28;20226;-77
2023/09/21 11:24:37;;;;;;;1.65;1.45;;;;;;;31.21;48.37;100103.13;5070984;28;20187;-75